EDLV/NRN METAR and TAF weather

Enter ICAO airport designator
Station Type Date Time Source
EDLV METAR 2024/06/15 23:20 UTC NOAA

EDLV 152320Z AUTO 19006KT 9999 // SCT064/// BKN075/// OVC100/// 14/10 Q1006


Station Type Date Time Source
EDLV Decoded METAR 2024/06/15 23:20 UTC NOAA

Niederrhein, Germany (EDLV) 51-36-09N 006-08-32E
Jun 15, 2024 - 07:20 PM EDT / 2024.06.15 2320 UTC
Wind: from the S (190 degrees) at 7 MPH (6 KT):0
Visibility: greater than 7 mile(s):0
Sky conditions: overcast
Temperature: 57 F (14 C)
Dew Point: 50 F (10 C)
Relative Humidity: 76%
Pressure (altimeter): 29.71 in. Hg (1006 hPa)
ob: EDLV 152320Z AUTO 19006KT 9999 // SCT064/// BKN075/// OVC100/// 14/10 Q1006
cycle: 23

Station Type Date Time Source
EDLV TAF 2024/06/15 22:30 UTC NOAA